sensor_id;sensor_type;location;lat;lon;timestamp;P1;durP1;ratioP1;P2;durP2;ratioP2
4428;SDS011;2227;47.810;8.810;2023-10-19T03:45:37;25.70;;;18.08;;
4428;SDS011;2227;47.810;8.810;2023-10-19T03:48:10;24.15;;;18.25;;
4428;SDS011;2227;47.810;8.810;2023-10-19T03:50:37;24.67;;;18.35;;
4428;SDS011;2227;47.810;8.810;2023-10-19T03:53:04;25.00;;;18.25;;
4428;SDS011;2227;47.810;8.810;2023-10-19T03:55:30;24.98;;;18.23;;
4428;SDS011;2227;47.810;8.810;2023-10-19T03:57:57;24.23;;;18.35;;
4428;SDS011;2227;47.810;8.810;2023-10-19T04:00:24;24.92;;;17.75;;
4428;SDS011;2227;47.810;8.810;2023-10-19T04:02:53;24.45;;;18.50;;
4428;SDS011;2227;47.810;8.810;2023-10-19T04:05:22;24.95;;;18.25;;
4428;SDS011;2227;47.810;8.810;2023-10-19T04:07:49;26.17;;;19.17;;
4428;SDS011;2227;47.810;8.810;2023-10-19T04:10:18;25.58;;;18.33;;
4428;SDS011;2227;47.810;8.810;2023-10-19T04:13:01;25.73;;;18.88;;
4428;SDS011;2227;47.810;8.810;2023-10-19T04:15:29;25.52;;;19.05;;
4428;SDS011;2227;47.810;8.810;2023-10-19T04:17:59;27.00;;;19.25;;
4428;SDS011;2227;47.810;8.810;2023-10-19T04:20:26;25.92;;;19.23;;
4428;SDS011;2227;47.810;8.810;2023-10-19T04:23:02;24.65;;;18.15;;
4428;SDS011;2227;47.810;8.810;2023-10-19T04:25:42;27.83;;;18.52;;
4428;SDS011;2227;47.810;8.810;2023-10-19T04:28:13;25.63;;;18.95;;
4428;SDS011;2227;47.810;8.810;2023-10-19T04:30:40;25.38;;;19.42;;
4428;SDS011;2227;47.810;8.810;2023-10-19T04:33:07;26.83;;;19.27;;
4428;SDS011;2227;47.810;8.810;2023-10-19T04:35:37;27.35;;;19.05;;
4428;SDS011;2227;47.810;8.810;2023-10-19T04:38:07;26.85;;;18.95;;
4428;SDS011;2227;47.810;8.810;2023-10-19T04:40:34;24.73;;;18.60;;
4428;SDS011;2227;47.810;8.810;2023-10-19T04:43:02;26.48;;;19.17;;
4428;SDS011;2227;47.810;8.810;2023-10-19T04:45:31;25.95;;;18.58;;
4428;SDS011;2227;47.810;8.810;2023-10-19T04:47:58;25.63;;;18.77;;
4428;SDS011;2227;47.810;8.810;2023-10-19T04:50:25;27.55;;;19.63;;
4428;SDS011;2227;47.810;8.810;2023-10-19T04:52:52;25.13;;;19.42;;
4428;SDS011;2227;47.810;8.810;2023-10-19T04:55:19;24.33;;;18.10;;
4428;SDS011;2227;47.810;8.810;2023-10-19T04:57:45;24.70;;;17.58;;
4428;SDS011;2227;47.810;8.810;2023-10-19T05:00:13;25.38;;;19.65;;
4428;SDS011;2227;47.810;8.810;2023-10-19T05:02:41;23.35;;;18.55;;
4428;SDS011;2227;47.810;8.810;2023-10-19T05:05:09;25.45;;;19.05;;
4428;SDS011;2227;47.810;8.810;2023-10-19T05:07:36;25.05;;;18.30;;
4428;SDS011;2227;47.810;8.810;2023-10-19T05:10:03;25.42;;;18.65;;
4428;SDS011;2227;47.810;8.810;2023-10-19T05:12:31;25.77;;;18.08;;
4428;SDS011;2227;47.810;8.810;2023-10-19T05:14:58;25.10;;;18.98;;
4428;SDS011;2227;47.810;8.810;2023-10-19T05:17:25;23.67;;;17.67;;
4428;SDS011;2227;47.810;8.810;2023-10-19T05:19:54;25.33;;;18.45;;
4428;SDS011;2227;47.810;8.810;2023-10-19T05:22:22;26.75;;;18.80;;
4428;SDS011;2227;47.810;8.810;2023-10-19T05:24:51;28.05;;;18.75;;
4428;SDS011;2227;47.810;8.810;2023-10-19T05:27:18;25.90;;;17.73;;
4428;SDS011;2227;47.810;8.810;2023-10-19T05:29:46;29.27;;;19.42;;
4428;SDS011;2227;47.810;8.810;2023-10-19T05:32:13;27.92;;;19.33;;
4428;SDS011;2227;47.810;8.810;2023-10-19T05:34:40;27.15;;;18.83;;
4428;SDS011;2227;47.810;8.810;2023-10-19T05:37:07;27.00;;;19.42;;
4428;SDS011;2227;47.810;8.810;2023-10-19T05:39:35;24.30;;;18.77;;
4428;SDS011;2227;47.810;8.810;2023-10-19T05:42:02;25.60;;;18.77;;
4428;SDS011;2227;47.810;8.810;2023-10-19T05:44:30;27.85;;;19.33;;
4428;SDS011;2227;47.810;8.810;2023-10-19T05:46:58;25.50;;;18.63;;
4428;SDS011;2227;47.810;8.810;2023-10-19T05:49:26;26.05;;;17.08;;
4428;SDS011;2227;47.810;8.810;2023-10-19T05:51:55;24.20;;;17.58;;
4428;SDS011;2227;47.810;8.810;2023-10-19T05:54:22;24.42;;;17.08;;
4428;SDS011;2227;47.810;8.810;2023-10-19T05:56:50;25.52;;;17.67;;
4428;SDS011;2227;47.810;8.810;2023-10-19T05:59:19;27.48;;;18.88;;
4428;SDS011;2227;47.810;8.810;2023-10-19T06:01:45;26.55;;;18.42;;
4428;SDS011;2227;47.810;8.810;2023-10-19T06:04:13;26.67;;;18.48;;
4428;SDS011;2227;47.810;8.810;2023-10-19T06:06:43;24.92;;;18.30;;
4428;SDS011;2227;47.810;8.810;2023-10-19T06:09:09;22.33;;;16.92;;
4428;SDS011;2227;47.810;8.810;2023-10-19T06:11:36;24.27;;;18.33;;
4428;SDS011;2227;47.810;8.810;2023-10-19T06:14:08;23.95;;;17.17;;
4428;SDS011;2227;47.810;8.810;2023-10-19T06:16:36;24.17;;;16.92;;
4428;SDS011;2227;47.810;8.810;2023-10-19T06:19:03;24.02;;;17.30;;
4428;SDS011;2227;47.810;8.810;2023-10-19T06:21:30;23.50;;;16.25;;
4428;SDS011;2227;47.810;8.810;2023-10-19T06:23:59;23.60;;;17.70;;
4428;SDS011;2227;47.810;8.810;2023-10-19T06:26:25;25.77;;;16.73;;
4428;SDS011;2227;47.810;8.810;2023-10-19T06:28:52;22.48;;;16.13;;
4428;SDS011;2227;47.810;8.810;2023-10-19T06:31:25;23.88;;;16.95;;
4428;SDS011;2227;47.810;8.810;2023-10-19T06:33:56;25.83;;;17.48;;
4428;SDS011;2227;47.810;8.810;2023-10-19T06:36:23;26.48;;;18.33;;
4428;SDS011;2227;47.810;8.810;2023-10-19T06:38:50;26.08;;;17.40;;
4428;SDS011;2227;47.810;8.810;2023-10-19T06:41:17;25.70;;;17.95;;
4428;SDS011;2227;47.810;8.810;2023-10-19T06:43:47;24.27;;;17.10;;
4428;SDS011;2227;47.810;8.810;2023-10-19T06:46:13;22.65;;;16.95;;
4428;SDS011;2227;47.810;8.810;2023-10-19T06:48:41;23.73;;;18.13;;
4428;SDS011;2227;47.810;8.810;2023-10-19T06:51:09;23.23;;;17.15;;
4428;SDS011;2227;47.810;8.810;2023-10-19T06:53:36;22.65;;;17.50;;
4428;SDS011;2227;47.810;8.810;2023-10-19T06:56:03;22.20;;;16.88;;
4428;SDS011;2227;47.810;8.810;2023-10-19T06:58:30;23.30;;;16.80;;
4428;SDS011;2227;47.810;8.810;2023-10-19T07:00:57;24.00;;;17.00;;
4428;SDS011;2227;47.810;8.810;2023-10-19T07:03:32;25.50;;;17.85;;
4428;SDS011;2227;47.810;8.810;2023-10-19T07:05:59;22.40;;;17.08;;
4428;SDS011;2227;47.810;8.810;2023-10-19T07:08:26;23.08;;;17.15;;
4428;SDS011;2227;47.810;8.810;2023-10-19T07:10:56;21.33;;;16.60;;
4428;SDS011;2227;47.810;8.810;2023-10-19T07:13:23;18.77;;;15.02;;
4428;SDS011;2227;47.810;8.810;2023-10-19T07:15:49;22.50;;;16.67;;
4428;SDS011;2227;47.810;8.810;2023-10-19T07:18:18;25.15;;;17.75;;
4428;SDS011;2227;47.810;8.810;2023-10-19T07:20:45;22.50;;;16.63;;
4428;SDS011;2227;47.810;8.810;2023-10-19T07:23:15;21.00;;;16.15;;
4428;SDS011;2227;47.810;8.810;2023-10-19T07:25:45;24.23;;;17.65;;
4428;SDS011;2227;47.810;8.810;2023-10-19T07:28:15;22.88;;;16.95;;
4428;SDS011;2227;47.810;8.810;2023-10-19T07:30:42;22.73;;;16.33;;
4428;SDS011;2227;47.810;8.810;2023-10-19T07:33:10;22.23;;;16.05;;
4428;SDS011;2227;47.810;8.810;2023-10-19T07:38:12;23.30;;;16.70;;
4428;SDS011;2227;47.810;8.810;2023-10-19T07:40:40;24.40;;;18.58;;
4428;SDS011;2227;47.810;8.810;2023-10-19T07:43:10;24.60;;;16.90;;
4428;SDS011;2227;47.810;8.810;2023-10-19T07:45:36;23.98;;;17.05;;
4428;SDS011;2227;47.810;8.810;2023-10-19T07:48:04;23.40;;;16.98;;
4428;SDS011;2227;47.810;8.810;2023-10-19T07:50:38;25.38;;;16.58;;
4428;SDS011;2227;47.810;8.810;2023-10-19T07:53:09;26.30;;;18.38;;
4428;SDS011;2227;47.810;8.810;2023-10-19T07:55:36;24.40;;;18.17;;
4428;SDS011;2227;47.810;8.810;2023-10-19T07:58:05;23.00;;;17.52;;
4428;SDS011;2227;47.810;8.810;2023-10-19T08:00:35;22.10;;;16.65;;
4428;SDS011;2227;47.810;8.810;2023-10-19T08:03:02;23.10;;;17.08;;
4428;SDS011;2227;47.810;8.810;2023-10-19T08:05:33;22.02;;;16.92;;
4428;SDS011;2227;47.810;8.810;2023-10-19T08:08:01;24.58;;;17.33;;
4428;SDS011;2227;47.810;8.810;2023-10-19T08:10:30;22.60;;;15.70;;
4428;SDS011;2227;47.810;8.810;2023-10-19T08:12:57;19.33;;;15.13;;
4428;SDS011;2227;47.810;8.810;2023-10-19T08:15:25;22.13;;;15.35;;
4428;SDS011;2227;47.810;8.810;2023-10-19T08:17:52;21.65;;;16.30;;
4428;SDS011;2227;47.810;8.810;2023-10-19T08:20:22;25.15;;;16.25;;
4428;SDS011;2227;47.810;8.810;2023-10-19T08:22:59;23.77;;;17.13;;
4428;SDS011;2227;47.810;8.810;2023-10-19T08:25:28;26.42;;;17.48;;
4428;SDS011;2227;47.810;8.810;2023-10-19T08:28:13;22.75;;;15.80;;
4428;SDS011;2227;47.810;8.810;2023-10-19T08:30:41;24.73;;;19.42;;
4428;SDS011;2227;47.810;8.810;2023-10-19T08:33:08;25.17;;;17.95;;
4428;SDS011;2227;47.810;8.810;2023-10-19T08:35:34;24.65;;;17.27;;
4428;SDS011;2227;47.810;8.810;2023-10-19T08:38:02;21.95;;;16.52;;
4428;SDS011;2227;47.810;8.810;2023-10-19T08:40:36;21.77;;;16.08;;
4428;SDS011;2227;47.810;8.810;2023-10-19T08:43:04;22.88;;;16.25;;
4428;SDS011;2227;47.810;8.810;2023-10-19T08:45:31;21.15;;;15.95;;
4428;SDS011;2227;47.810;8.810;2023-10-19T08:48:01;25.05;;;18.98;;
4428;SDS011;2227;47.810;8.810;2023-10-19T08:50:29;22.42;;;15.70;;
4428;SDS011;2227;47.810;8.810;2023-10-19T08:52:58;19.05;;;14.23;;
4428;SDS011;2227;47.810;8.810;2023-10-19T08:55:27;18.42;;;13.57;;
4428;SDS011;2227;47.810;8.810;2023-10-19T08:57:56;19.05;;;13.23;;
4428;SDS011;2227;47.810;8.810;2023-10-19T09:00:25;16.40;;;13.57;;
4428;SDS011;2227;47.810;8.810;2023-10-19T09:02:53;19.63;;;13.75;;
4428;SDS011;2227;47.810;8.810;2023-10-19T09:05:20;20.95;;;14.82;;
4428;SDS011;2227;47.810;8.810;2023-10-19T09:07:49;23.02;;;17.38;;
4428;SDS011;2227;47.810;8.810;2023-10-19T09:10:23;22.07;;;16.07;;
4428;SDS011;2227;47.810;8.810;2023-10-19T09:12:59;22.27;;;16.63;;
4428;SDS011;2227;47.810;8.810;2023-10-19T09:15:28;21.35;;;16.17;;
4428;SDS011;2227;47.810;8.810;2023-10-19T09:18:01;23.00;;;15.85;;
4428;SDS011;2227;47.810;8.810;2023-10-19T09:20:42;22.17;;;15.20;;
4428;SDS011;2227;47.810;8.810;2023-10-19T09:23:20;21.77;;;16.27;;
4428;SDS011;2227;47.810;8.810;2023-10-19T09:25:51;24.20;;;16.50;;
4428;SDS011;2227;47.810;8.810;2023-10-19T09:28:21;22.02;;;15.40;;
4428;SDS011;2227;47.810;8.810;2023-10-19T09:30:50;22.90;;;15.30;;
4428;SDS011;2227;47.810;8.810;2023-10-19T09:33:18;24.15;;;16.55;;
4428;SDS011;2227;47.810;8.810;2023-10-19T09:35:48;24.42;;;18.35;;
4428;SDS011;2227;47.810;8.810;2023-10-19T09:38:17;22.38;;;16.98;;
4428;SDS011;2227;47.810;8.810;2023-10-19T09:40:54;21.83;;;17.15;;
4428;SDS011;2227;47.810;8.810;2023-10-19T09:43:37;25.40;;;18.35;;
4428;SDS011;2227;47.810;8.810;2023-10-19T09:46:08;24.75;;;18.45;;
4428;SDS011;2227;47.810;8.810;2023-10-19T09:51:08;22.92;;;17.77;;
4428;SDS011;2227;47.810;8.810;2023-10-19T09:53:43;22.15;;;16.48;;
4428;SDS011;2227;47.810;8.810;2023-10-19T09:56:41;22.67;;;17.15;;
4428;SDS011;2227;47.810;8.810;2023-10-19T09:59:22;23.00;;;16.85;;
4428;SDS011;2227;47.810;8.810;2023-10-19T10:04:42;20.00;;;16.67;;
4428;SDS011;2227;47.810;8.810;2023-10-19T10:07:12;21.65;;;16.80;;
4428;SDS011;2227;47.810;8.810;2023-10-19T10:09:43;20.40;;;16.38;;
4428;SDS011;2227;47.810;8.810;2023-10-19T10:12:18;20.95;;;16.30;;
4428;SDS011;2227;47.810;8.810;2023-10-19T10:15:02;22.35;;;17.85;;
4428;SDS011;2227;47.810;8.810;2023-10-19T10:17:34;22.15;;;18.10;;
4428;SDS011;2227;47.810;8.810;2023-10-19T10:22:39;19.80;;;16.13;;
4428;SDS011;2227;47.810;8.810;2023-10-19T10:25:07;21.63;;;17.30;;
4428;SDS011;2227;47.810;8.810;2023-10-19T10:27:51;20.00;;;15.85;;
4428;SDS011;2227;47.810;8.810;2023-10-19T10:30:18;18.73;;;15.38;;
4428;SDS011;2227;47.810;8.810;2023-10-19T10:32:45;19.17;;;15.50;;
4428;SDS011;2227;47.810;8.810;2023-10-19T10:38:05;16.70;;;14.07;;
4428;SDS011;2227;47.810;8.810;2023-10-19T10:40:42;19.17;;;14.25;;
4428;SDS011;2227;47.810;8.810;2023-10-19T10:43:13;18.25;;;15.63;;
4428;SDS011;2227;47.810;8.810;2023-10-19T10:45:41;19.10;;;14.23;;
4428;SDS011;2227;47.810;8.810;2023-10-19T10:48:15;17.13;;;14.38;;
4428;SDS011;2227;47.810;8.810;2023-10-19T10:50:43;18.27;;;15.43;;
4428;SDS011;2227;47.810;8.810;2023-10-19T10:53:12;19.00;;;15.20;;
4428;SDS011;2227;47.810;8.810;2023-10-19T10:55:41;18.90;;;14.85;;
4428;SDS011;2227;47.810;8.810;2023-10-19T10:58:09;18.77;;;15.50;;
4428;SDS011;2227;47.810;8.810;2023-10-19T11:00:44;17.30;;;15.05;;
4428;SDS011;2227;47.810;8.810;2023-10-19T11:03:17;18.08;;;14.57;;
4428;SDS011;2227;47.810;8.810;2023-10-19T11:05:44;15.88;;;12.85;;
4428;SDS011;2227;47.810;8.810;2023-10-19T11:08:13;16.55;;;13.10;;
4428;SDS011;2227;47.810;8.810;2023-10-19T11:10:43;16.25;;;12.80;;
4428;SDS011;2227;47.810;8.810;2023-10-19T11:13:13;14.00;;;12.20;;
4428;SDS011;2227;47.810;8.810;2023-10-19T11:15:51;13.70;;;11.90;;
4428;SDS011;2227;47.810;8.810;2023-10-19T11:18:27;12.75;;;11.40;;
4428;SDS011;2227;47.810;8.810;2023-10-19T11:20:58;13.43;;;11.48;;
4428;SDS011;2227;47.810;8.810;2023-10-19T11:23:48;13.57;;;11.50;;
4428;SDS011;2227;47.810;8.810;2023-10-19T11:26:22;13.23;;;11.50;;
4428;SDS011;2227;47.810;8.810;2023-10-19T11:29:02;12.55;;;11.23;;
4428;SDS011;2227;47.810;8.810;2023-10-19T11:31:36;13.45;;;10.85;;
4428;SDS011;2227;47.810;8.810;2023-10-19T11:34:06;13.20;;;11.18;;
4428;SDS011;2227;47.810;8.810;2023-10-19T11:36:35;12.93;;;11.48;;
4428;SDS011;2227;47.810;8.810;2023-10-19T11:39:02;11.93;;;10.70;;
4428;SDS011;2227;47.810;8.810;2023-10-19T11:41:30;12.77;;;11.40;;
4428;SDS011;2227;47.810;8.810;2023-10-19T11:43:57;14.43;;;12.93;;
4428;SDS011;2227;47.810;8.810;2023-10-19T11:46:24;15.40;;;13.80;;
4428;SDS011;2227;47.810;8.810;2023-10-19T11:48:52;14.50;;;13.00;;
4428;SDS011;2227;47.810;8.810;2023-10-19T11:51:18;15.50;;;13.32;;
4428;SDS011;2227;47.810;8.810;2023-10-19T11:53:45;15.00;;;13.38;;
4428;SDS011;2227;47.810;8.810;2023-10-19T11:56:12;18.75;;;15.55;;
4428;SDS011;2227;47.810;8.810;2023-10-19T11:58:40;17.60;;;15.02;;
4428;SDS011;2227;47.810;8.810;2023-10-19T12:01:09;16.35;;;14.25;;
4428;SDS011;2227;47.810;8.810;2023-10-19T12:03:39;18.70;;;15.63;;
4428;SDS011;2227;47.810;8.810;2023-10-19T12:06:07;19.02;;;15.95;;
4428;SDS011;2227;47.810;8.810;2023-10-19T12:08:35;18.98;;;15.07;;
4428;SDS011;2227;47.810;8.810;2023-10-19T12:11:02;18.38;;;14.15;;
4428;SDS011;2227;47.810;8.810;2023-10-19T12:13:30;18.13;;;15.75;;
4428;SDS011;2227;47.810;8.810;2023-10-19T12:15:58;20.98;;;16.63;;
4428;SDS011;2227;47.810;8.810;2023-10-19T12:18:25;19.33;;;15.95;;
4428;SDS011;2227;47.810;8.810;2023-10-19T12:20:55;20.42;;;15.65;;
4428;SDS011;2227;47.810;8.810;2023-10-19T12:23:25;18.13;;;14.70;;
4428;SDS011;2227;47.810;8.810;2023-10-19T12:25:53;20.13;;;16.77;;
4428;SDS011;2227;47.810;8.810;2023-10-19T12:28:23;19.67;;;16.95;;
4428;SDS011;2227;47.810;8.810;2023-10-19T12:30:51;21.15;;;17.48;;
4428;SDS011;2227;47.810;8.810;2023-10-19T12:33:19;19.45;;;16.13;;
4428;SDS011;2227;47.810;8.810;2023-10-19T12:35:47;19.60;;;16.33;;
4428;SDS011;2227;47.810;8.810;2023-10-19T12:38:26;22.25;;;16.27;;
4428;SDS011;2227;47.810;8.810;2023-10-19T12:40:53;19.02;;;16.90;;
4428;SDS011;2227;47.810;8.810;2023-10-19T12:43:20;21.30;;;17.08;;
4428;SDS011;2227;47.810;8.810;2023-10-19T12:45:51;22.67;;;17.67;;
4428;SDS011;2227;47.810;8.810;2023-10-19T12:48:23;19.95;;;17.20;;
4428;SDS011;2227;47.810;8.810;2023-10-19T12:50:59;21.10;;;17.70;;
4428;SDS011;2227;47.810;8.810;2023-10-19T12:53:28;19.55;;;16.25;;
4428;SDS011;2227;47.810;8.810;2023-10-19T12:55:54;20.23;;;16.08;;
4428;SDS011;2227;47.810;8.810;2023-10-19T12:58:21;20.35;;;15.55;;
4428;SDS011;2227;47.810;8.810;2023-10-19T13:00:48;20.60;;;15.38;;
4428;SDS011;2227;47.810;8.810;2023-10-19T13:03:15;20.77;;;16.08;;
4428;SDS011;2227;47.810;8.810;2023-10-19T13:05:45;18.05;;;15.20;;
4428;SDS011;2227;47.810;8.810;2023-10-19T13:08:13;18.63;;;15.93;;
4428;SDS011;2227;47.810;8.810;2023-10-19T13:10:41;17.75;;;15.32;;
4428;SDS011;2227;47.810;8.810;2023-10-19T13:13:13;18.08;;;14.80;;
4428;SDS011;2227;47.810;8.810;2023-10-19T13:15:44;17.55;;;15.02;;
4428;SDS011;2227;47.810;8.810;2023-10-19T13:18:12;19.50;;;16.17;;
4428;SDS011;2227;47.810;8.810;2023-10-19T13:20:44;17.50;;;14.73;;
4428;SDS011;2227;47.810;8.810;2023-10-19T13:23:12;20.70;;;16.90;;
4428;SDS011;2227;47.810;8.810;2023-10-19T13:25:42;19.27;;;14.25;;
4428;SDS011;2227;47.810;8.810;2023-10-19T13:28:20;17.27;;;13.70;;
4428;SDS011;2227;47.810;8.810;2023-10-19T13:30:49;16.38;;;13.63;;
4428;SDS011;2227;47.810;8.810;2023-10-19T13:33:19;17.23;;;14.20;;
4428;SDS011;2227;47.810;8.810;2023-10-19T13:35:47;17.63;;;14.35;;
4428;SDS011;2227;47.810;8.810;2023-10-19T13:38:15;18.52;;;14.77;;
4428;SDS011;2227;47.810;8.810;2023-10-19T13:40:43;19.58;;;15.57;;
4428;SDS011;2227;47.810;8.810;2023-10-19T13:43:11;21.23;;;15.18;;
4428;SDS011;2227;47.810;8.810;2023-10-19T13:45:42;19.42;;;15.38;;
4428;SDS011;2227;47.810;8.810;2023-10-19T13:48:10;21.20;;;16.92;;
4428;SDS011;2227;47.810;8.810;2023-10-19T13:50:42;22.65;;;16.35;;
4428;SDS011;2227;47.810;8.810;2023-10-19T13:53:12;21.65;;;16.05;;
4428;SDS011;2227;47.810;8.810;2023-10-19T13:55:39;22.65;;;15.82;;
4428;SDS011;2227;47.810;8.810;2023-10-19T13:58:06;21.60;;;13.93;;
4428;SDS011;2227;47.810;8.810;2023-10-19T14:00:33;16.05;;;13.02;;
4428;SDS011;2227;47.810;8.810;2023-10-19T14:03:03;17.42;;;13.82;;
4428;SDS011;2227;47.810;8.810;2023-10-19T14:08:06;16.13;;;12.00;;
4428;SDS011;2227;47.810;8.810;2023-10-19T14:10:34;14.25;;;12.20;;
4428;SDS011;2227;47.810;8.810;2023-10-19T14:13:02;14.93;;;12.68;;
4428;SDS011;2227;47.810;8.810;2023-10-19T14:15:28;15.63;;;12.70;;
4428;SDS011;2227;47.810;8.810;2023-10-19T14:17:57;15.77;;;12.32;;
4428;SDS011;2227;47.810;8.810;2023-10-19T14:20:24;17.48;;;13.73;;
4428;SDS011;2227;47.810;8.810;2023-10-19T14:22:51;22.00;;;13.98;;
4428;SDS011;2227;47.810;8.810;2023-10-19T14:25:21;23.42;;;17.33;;
4428;SDS011;2227;47.810;8.810;2023-10-19T14:27:50;17.92;;;14.38;;
4428;SDS011;2227;47.810;8.810;2023-10-19T14:30:21;16.65;;;13.73;;
4428;SDS011;2227;47.810;8.810;2023-10-19T14:32:49;16.88;;;13.07;;
4428;SDS011;2227;47.810;8.810;2023-10-19T14:35:17;15.00;;;12.95;;
4428;SDS011;2227;47.810;8.810;2023-10-19T14:37:49;14.77;;;12.45;;
4428;SDS011;2227;47.810;8.810;2023-10-19T14:40:19;17.27;;;13.90;;
4428;SDS011;2227;47.810;8.810;2023-10-19T14:42:47;16.50;;;13.07;;
4428;SDS011;2227;47.810;8.810;2023-10-19T14:45:19;17.65;;;12.65;;
4428;SDS011;2227;47.810;8.810;2023-10-19T14:47:47;14.60;;;12.38;;
4428;SDS011;2227;47.810;8.810;2023-10-19T14:50:15;15.20;;;11.95;;
4428;SDS011;2227;47.810;8.810;2023-10-19T14:52:44;14.68;;;11.63;;
4428;SDS011;2227;47.810;8.810;2023-10-19T14:55:13;15.68;;;10.43;;
4428;SDS011;2227;47.810;8.810;2023-10-19T14:57:42;13.50;;;10.80;;
4428;SDS011;2227;47.810;8.810;2023-10-19T15:00:11;15.48;;;11.90;;
4428;SDS011;2227;47.810;8.810;2023-10-19T15:02:43;13.82;;;12.02;;
4428;SDS011;2227;47.810;8.810;2023-10-19T15:05:11;14.98;;;12.23;;
4428;SDS011;2227;47.810;8.810;2023-10-19T15:07:42;14.95;;;12.07;;
4428;SDS011;2227;47.810;8.810;2023-10-19T15:10:11;14.30;;;11.43;;
4428;SDS011;2227;47.810;8.810;2023-10-19T15:12:39;15.15;;;12.60;;
4428;SDS011;2227;47.810;8.810;2023-10-19T15:15:08;13.43;;;11.52;;
4428;SDS011;2227;47.810;8.810;2023-10-19T15:17:39;14.77;;;12.27;;
4428;SDS011;2227;47.810;8.810;2023-10-19T15:20:08;16.17;;;12.57;;
4428;SDS011;2227;47.810;8.810;2023-10-19T15:22:40;15.90;;;13.07;;
4428;SDS011;2227;47.810;8.810;2023-10-19T15:25:07;18.88;;;14.85;;
4428;SDS011;2227;47.810;8.810;2023-10-19T15:27:36;27.48;;;16.88;;
4428;SDS011;2227;47.810;8.810;2023-10-19T15:30:04;22.73;;;15.88;;
4428;SDS011;2227;47.810;8.810;2023-10-19T15:32:32;20.08;;;14.70;;
4428;SDS011;2227;47.810;8.810;2023-10-19T15:34:59;16.95;;;13.98;;
4428;SDS011;2227;47.810;8.810;2023-10-19T15:37:26;14.75;;;13.20;;
4428;SDS011;2227;47.810;8.810;2023-10-19T15:39:52;16.35;;;12.43;;
4428;SDS011;2227;47.810;8.810;2023-10-19T15:42:19;17.02;;;13.02;;
4428;SDS011;2227;47.810;8.810;2023-10-19T15:44:48;17.00;;;13.75;;
4428;SDS011;2227;47.810;8.810;2023-10-19T15:47:17;17.80;;;13.95;;
4428;SDS011;2227;47.810;8.810;2023-10-19T15:49:48;15.73;;;12.82;;
4428;SDS011;2227;47.810;8.810;2023-10-19T15:52:22;17.83;;;14.15;;
4428;SDS011;2227;47.810;8.810;2023-10-19T15:54:50;17.40;;;13.27;;
4428;SDS011;2227;47.810;8.810;2023-10-19T15:57:17;17.98;;;14.50;;
4428;SDS011;2227;47.810;8.810;2023-10-19T15:59:45;19.42;;;14.77;;
4428;SDS011;2227;47.810;8.810;2023-10-19T16:02:13;18.92;;;14.80;;
4428;SDS011;2227;47.810;8.810;2023-10-19T16:04:42;18.75;;;14.95;;
4428;SDS011;2227;47.810;8.810;2023-10-19T16:07:11;18.90;;;14.80;;
4428;SDS011;2227;47.810;8.810;2023-10-19T16:09:39;20.15;;;15.75;;
4428;SDS011;2227;47.810;8.810;2023-10-19T16:12:06;20.50;;;15.40;;
4428;SDS011;2227;47.810;8.810;2023-10-19T16:14:37;18.75;;;15.10;;
4428;SDS011;2227;47.810;8.810;2023-10-19T16:17:06;20.30;;;15.38;;
4428;SDS011;2227;47.810;8.810;2023-10-19T16:19:35;19.20;;;15.10;;
4428;SDS011;2227;47.810;8.810;2023-10-19T16:22:02;19.08;;;14.25;;
4428;SDS011;2227;47.810;8.810;2023-10-19T16:24:29;44.00;;;29.10;;
4428;SDS011;2227;47.810;8.810;2023-10-19T16:26:56;25.88;;;19.05;;
4428;SDS011;2227;47.810;8.810;2023-10-19T16:29:23;21.30;;;18.13;;
4428;SDS011;2227;47.810;8.810;2023-10-19T16:31:52;26.95;;;21.52;;
4428;SDS011;2227;47.810;8.810;2023-10-19T16:34:24;26.90;;;20.15;;
4428;SDS011;2227;47.810;8.810;2023-10-19T16:36:51;31.63;;;21.98;;
4428;SDS011;2227;47.810;8.810;2023-10-19T16:39:18;22.63;;;16.23;;
4428;SDS011;2227;47.810;8.810;2023-10-19T16:41:46;23.73;;;17.30;;
4428;SDS011;2227;47.810;8.810;2023-10-19T16:44:15;20.83;;;15.48;;
4428;SDS011;2227;47.810;8.810;2023-10-19T16:46:42;20.95;;;16.25;;
4428;SDS011;2227;47.810;8.810;2023-10-19T16:49:10;21.80;;;16.00;;
4428;SDS011;2227;47.810;8.810;2023-10-19T16:51:37;20.25;;;14.93;;
4428;SDS011;2227;47.810;8.810;2023-10-19T16:54:07;20.77;;;16.02;;
4428;SDS011;2227;47.810;8.810;2023-10-19T16:56:35;21.55;;;16.17;;
4428;SDS011;2227;47.810;8.810;2023-10-19T16:59:07;21.00;;;15.48;;
4428;SDS011;2227;47.810;8.810;2023-10-19T17:01:38;17.02;;;14.45;;
4428;SDS011;2227;47.810;8.810;2023-10-19T17:04:05;17.15;;;13.55;;
4428;SDS011;2227;47.810;8.810;2023-10-19T17:06:32;16.42;;;13.68;;
4428;SDS011;2227;47.810;8.810;2023-10-19T17:09:00;19.92;;;13.80;;
4428;SDS011;2227;47.810;8.810;2023-10-19T17:11:38;20.33;;;16.75;;
4428;SDS011;2227;47.810;8.810;2023-10-19T17:14:05;17.48;;;13.85;;
4428;SDS011;2227;47.810;8.810;2023-10-19T17:16:34;18.15;;;14.30;;
4428;SDS011;2227;47.810;8.810;2023-10-19T17:19:01;18.15;;;13.80;;
4428;SDS011;2227;47.810;8.810;2023-10-19T17:21:29;17.67;;;14.35;;
4428;SDS011;2227;47.810;8.810;2023-10-19T17:23:56;19.88;;;15.40;;
4428;SDS011;2227;47.810;8.810;2023-10-19T17:26:24;19.48;;;15.00;;
4428;SDS011;2227;47.810;8.810;2023-10-19T17:28:52;21.88;;;17.42;;
4428;SDS011;2227;47.810;8.810;2023-10-19T17:31:22;16.58;;;13.00;;
4428;SDS011;2227;47.810;8.810;2023-10-19T17:33:51;16.27;;;13.10;;
4428;SDS011;2227;47.810;8.810;2023-10-19T17:36:19;18.38;;;13.82;;
4428;SDS011;2227;47.810;8.810;2023-10-19T17:38:46;17.83;;;12.98;;
4428;SDS011;2227;47.810;8.810;2023-10-19T17:41:13;16.23;;;13.48;;
4428;SDS011;2227;47.810;8.810;2023-10-19T17:43:41;16.23;;;12.45;;
4428;SDS011;2227;47.810;8.810;2023-10-19T17:46:09;16.70;;;12.93;;
4428;SDS011;2227;47.810;8.810;2023-10-19T17:48:40;16.75;;;13.85;;
4428;SDS011;2227;47.810;8.810;2023-10-19T17:51:09;17.92;;;13.27;;
4428;SDS011;2227;47.810;8.810;2023-10-19T17:53:42;18.80;;;14.13;;
4428;SDS011;2227;47.810;8.810;2023-10-19T17:56:09;16.75;;;12.63;;
4428;SDS011;2227;47.810;8.810;2023-10-19T17:58:36;17.42;;;13.30;;
4428;SDS011;2227;47.810;8.810;2023-10-19T18:01:04;17.27;;;13.35;;
4428;SDS011;2227;47.810;8.810;2023-10-19T18:03:31;17.35;;;13.23;;
4428;SDS011;2227;47.810;8.810;2023-10-19T18:06:02;16.42;;;13.10;;
4428;SDS011;2227;47.810;8.810;2023-10-19T18:08:32;15.30;;;12.18;;
4428;SDS011;2227;47.810;8.810;2023-10-19T18:11:00;17.23;;;12.93;;
4428;SDS011;2227;47.810;8.810;2023-10-19T18:13:27;16.92;;;12.77;;
4428;SDS011;2227;47.810;8.810;2023-10-19T18:15:54;17.33;;;14.55;;
4428;SDS011;2227;47.810;8.810;2023-10-19T18:18:21;17.42;;;13.30;;
4428;SDS011;2227;47.810;8.810;2023-10-19T18:20:51;15.07;;;12.13;;
4428;SDS011;2227;47.810;8.810;2023-10-19T18:23:18;16.08;;;11.90;;
4428;SDS011;2227;47.810;8.810;2023-10-19T18:25:45;16.77;;;12.88;;
4428;SDS011;2227;47.810;8.810;2023-10-19T18:28:13;15.50;;;11.43;;
4428;SDS011;2227;47.810;8.810;2023-10-19T18:30:40;19.52;;;15.00;;
4428;SDS011;2227;47.810;8.810;2023-10-19T18:33:09;25.52;;;19.85;;
4428;SDS011;2227;47.810;8.810;2023-10-19T18:35:36;15.50;;;11.55;;
4428;SDS011;2227;47.810;8.810;2023-10-19T18:38:04;16.52;;;13.48;;
4428;SDS011;2227;47.810;8.810;2023-10-19T18:40:32;16.83;;;13.52;;
4428;SDS011;2227;47.810;8.810;2023-10-19T18:43:01;19.63;;;15.07;;
4428;SDS011;2227;47.810;8.810;2023-10-19T18:45:29;17.23;;;14.05;;
4428;SDS011;2227;47.810;8.810;2023-10-19T18:47:56;19.13;;;14.98;;
4428;SDS011;2227;47.810;8.810;2023-10-19T18:50:23;16.85;;;13.95;;
4428;SDS011;2227;47.810;8.810;2023-10-19T18:53:00;45.30;;;33.15;;
4428;SDS011;2227;47.810;8.810;2023-10-19T18:55:30;54.55;;;41.75;;
4428;SDS011;2227;47.810;8.810;2023-10-19T18:57:57;17.88;;;14.25;;
4428;SDS011;2227;47.810;8.810;2023-10-19T19:00:27;15.13;;;11.45;;